sensor_id;sensor_type;location;lat;lon;timestamp;temperature;humidity
22319;DHT22;11327;52.334;9.506;2022-12-18T00:00:55;-5.10;99.90
22319;DHT22;11327;52.334;9.506;2022-12-18T00:04:23;-5.10;99.90
22319;DHT22;11327;52.334;9.506;2022-12-18T00:07:45;-5.10;99.90
22319;DHT22;11327;52.334;9.506;2022-12-18T00:11:07;-5.10;99.90
22319;DHT22;11327;52.334;9.506;2022-12-18T00:14:28;-5.10;99.90
22319;DHT22;11327;52.334;9.506;2022-12-18T00:17:49;-5.10;99.90
22319;DHT22;11327;52.334;9.506;2022-12-18T00:21:13;-5.10;99.90
22319;DHT22;11327;52.334;9.506;2022-12-18T00:24:34;-5.10;99.90
22319;DHT22;11327;52.334;9.506;2022-12-18T00:27:55;-5.10;99.90
22319;DHT22;11327;52.334;9.506;2022-12-18T00:31:19;-5.20;99.90
22319;DHT22;11327;52.334;9.506;2022-12-18T00:34:40;-5.20;99.90
22319;DHT22;11327;52.334;9.506;2022-12-18T00:38:01;-5.20;99.90
22319;DHT22;11327;52.334;9.506;2022-12-18T00:41:22;-5.20;99.90
22319;DHT22;11327;52.334;9.506;2022-12-18T00:45:02;-5.20;99.90
22319;DHT22;11327;52.334;9.506;2022-12-18T00:48:23;-5.30;99.90
22319;DHT22;11327;52.334;9.506;2022-12-18T00:51:44;-5.30;99.90
22319;DHT22;11327;52.334;9.506;2022-12-18T00:55:06;-5.40;99.90
22319;DHT22;11327;52.334;9.506;2022-12-18T00:58:27;-5.40;99.90
22319;DHT22;11327;52.334;9.506;2022-12-18T01:01:48;-5.50;99.90
22319;DHT22;11327;52.334;9.506;2022-12-18T01:05:10;-5.50;99.90
22319;DHT22;11327;52.334;9.506;2022-12-18T01:08:32;-5.50;99.90
22319;DHT22;11327;52.334;9.506;2022-12-18T01:11:53;-5.50;99.90
22319;DHT22;11327;52.334;9.506;2022-12-18T01:15:14;-5.40;99.90
22319;DHT22;11327;52.334;9.506;2022-12-18T01:18:35;-5.40;99.90
22319;DHT22;11327;52.334;9.506;2022-12-18T01:21:56;-5.40;99.90
22319;DHT22;11327;52.334;9.506;2022-12-18T01:25:18;-5.50;99.90
22319;DHT22;11327;52.334;9.506;2022-12-18T01:28:39;-5.50;99.90
22319;DHT22;11327;52.334;9.506;2022-12-18T01:32:00;-5.50;99.90
22319;DHT22;11327;52.334;9.506;2022-12-18T01:35:21;-5.30;99.90
22319;DHT22;11327;52.334;9.506;2022-12-18T01:38:44;-5.30;99.90
22319;DHT22;11327;52.334;9.506;2022-12-18T01:42:13;-5.30;99.90
22319;DHT22;11327;52.334;9.506;2022-12-18T01:45:35;-5.30;99.90
22319;DHT22;11327;52.334;9.506;2022-12-18T01:48:59;-5.30;99.90
22319;DHT22;11327;52.334;9.506;2022-12-18T01:52:21;-4.30;99.90
22319;DHT22;11327;52.334;9.506;2022-12-18T01:55:48;-3.30;99.90
22319;DHT22;11327;52.334;9.506;2022-12-18T01:59:11;-2.80;99.90
22319;DHT22;11327;52.334;9.506;2022-12-18T02:02:32;-2.30;99.90
22319;DHT22;11327;52.334;9.506;2022-12-18T02:09:31;-1.80;99.90
22319;DHT22;11327;52.334;9.506;2022-12-18T02:12:57;-1.80;99.90
22319;DHT22;11327;52.334;9.506;2022-12-18T02:23:52;-1.90;99.90
22319;DHT22;11327;52.334;9.506;2022-12-18T02:27:13;-2.10;99.90
22319;DHT22;11327;52.334;9.506;2022-12-18T02:30:35;-2.60;99.90
22319;DHT22;11327;52.334;9.506;2022-12-18T02:34:00;-3.00;99.90
22319;DHT22;11327;52.334;9.506;2022-12-18T02:37:24;-3.30;99.90
22319;DHT22;11327;52.334;9.506;2022-12-18T02:40:49;-3.60;99.90
22319;DHT22;11327;52.334;9.506;2022-12-18T02:44:12;-3.80;99.90
22319;DHT22;11327;52.334;9.506;2022-12-18T02:47:39;-4.00;99.90
22319;DHT22;11327;52.334;9.506;2022-12-18T02:51:12;-4.00;99.90
22319;DHT22;11327;52.334;9.506;2022-12-18T02:55:08;-3.70;99.90
22319;DHT22;11327;52.334;9.506;2022-12-18T03:05:41;-3.70;99.90
22319;DHT22;11327;52.334;9.506;2022-12-18T03:09:09;-3.80;99.90
22319;DHT22;11327;52.334;9.506;2022-12-18T03:12:32;-3.90;99.90
22319;DHT22;11327;52.334;9.506;2022-12-18T03:15:55;-3.90;99.90
22319;DHT22;11327;52.334;9.506;2022-12-18T03:19:20;-4.00;99.90
22319;DHT22;11327;52.334;9.506;2022-12-18T03:22:44;-4.10;99.90
22319;DHT22;11327;52.334;9.506;2022-12-18T03:26:09;-4.30;99.90
22319;DHT22;11327;52.334;9.506;2022-12-18T03:29:34;-4.40;99.90
22319;DHT22;11327;52.334;9.506;2022-12-18T03:36:23;-4.60;99.90
22319;DHT22;11327;52.334;9.506;2022-12-18T03:39:45;-4.60;99.90
22319;DHT22;11327;52.334;9.506;2022-12-18T03:43:13;-4.70;99.90
22319;DHT22;11327;52.334;9.506;2022-12-18T03:50:19;-4.80;99.90
22319;DHT22;11327;52.334;9.506;2022-12-18T03:53:51;-4.80;99.90
22319;DHT22;11327;52.334;9.506;2022-12-18T03:57:24;-4.90;99.90
22319;DHT22;11327;52.334;9.506;2022-12-18T04:00:45;-4.90;99.90
22319;DHT22;11327;52.334;9.506;2022-12-18T04:04:08;-5.00;99.90
22319;DHT22;11327;52.334;9.506;2022-12-18T04:07:30;-5.00;99.90
22319;DHT22;11327;52.334;9.506;2022-12-18T04:10:52;-5.10;99.90
22319;DHT22;11327;52.334;9.506;2022-12-18T04:14:13;-5.10;99.90
22319;DHT22;11327;52.334;9.506;2022-12-18T04:17:34;-5.10;99.90
22319;DHT22;11327;52.334;9.506;2022-12-18T04:20:55;-5.20;99.90
22319;DHT22;11327;52.334;9.506;2022-12-18T04:24:16;-5.20;99.90
22319;DHT22;11327;52.334;9.506;2022-12-18T04:27:37;-5.20;99.90
22319;DHT22;11327;52.334;9.506;2022-12-18T04:30:58;-5.20;99.90
22319;DHT22;11327;52.334;9.506;2022-12-18T04:34:19;-5.30;99.90
22319;DHT22;11327;52.334;9.506;2022-12-18T04:37:40;-5.30;99.90
22319;DHT22;11327;52.334;9.506;2022-12-18T04:41:01;-5.30;99.90
22319;DHT22;11327;52.334;9.506;2022-12-18T04:44:22;-5.40;99.90
22319;DHT22;11327;52.334;9.506;2022-12-18T04:47:43;-5.40;99.90
22319;DHT22;11327;52.334;9.506;2022-12-18T04:51:05;-5.40;99.90
22319;DHT22;11327;52.334;9.506;2022-12-18T04:54:26;-5.40;99.90
22319;DHT22;11327;52.334;9.506;2022-12-18T04:57:47;-5.40;99.90
22319;DHT22;11327;52.334;9.506;2022-12-18T05:01:09;-5.50;99.90
22319;DHT22;11327;52.334;9.506;2022-12-18T05:04:30;-5.50;99.90
22319;DHT22;11327;52.334;9.506;2022-12-18T05:07:51;-5.50;99.90
22319;DHT22;11327;52.334;9.506;2022-12-18T05:11:13;-5.50;99.90
22319;DHT22;11327;52.334;9.506;2022-12-18T05:14:36;-5.60;99.90
22319;DHT22;11327;52.334;9.506;2022-12-18T05:17:58;-5.60;99.90
22319;DHT22;11327;52.334;9.506;2022-12-18T05:21:19;-5.60;99.90
22319;DHT22;11327;52.334;9.506;2022-12-18T05:24:40;-5.60;99.90
22319;DHT22;11327;52.334;9.506;2022-12-18T05:28:01;-5.50;99.90
22319;DHT22;11327;52.334;9.506;2022-12-18T05:31:22;-5.60;99.90
22319;DHT22;11327;52.334;9.506;2022-12-18T05:34:43;-5.60;99.90
22319;DHT22;11327;52.334;9.506;2022-12-18T05:38:04;-5.60;99.90
22319;DHT22;11327;52.334;9.506;2022-12-18T05:41:26;-5.60;99.90
22319;DHT22;11327;52.334;9.506;2022-12-18T05:44:47;-5.60;99.90
22319;DHT22;11327;52.334;9.506;2022-12-18T05:48:09;-5.60;99.90
22319;DHT22;11327;52.334;9.506;2022-12-18T05:51:30;-5.60;99.90
22319;DHT22;11327;52.334;9.506;2022-12-18T05:54:51;-5.60;99.90
22319;DHT22;11327;52.334;9.506;2022-12-18T05:58:13;-5.60;99.90
22319;DHT22;11327;52.334;9.506;2022-12-18T06:01:35;-5.50;99.90
22319;DHT22;11327;52.334;9.506;2022-12-18T06:04:55;-5.50;99.90
22319;DHT22;11327;52.334;9.506;2022-12-18T06:08:16;-5.50;99.90
22319;DHT22;11327;52.334;9.506;2022-12-18T06:11:38;-5.50;99.90
22319;DHT22;11327;52.334;9.506;2022-12-18T06:15:00;-5.50;99.90
22319;DHT22;11327;52.334;9.506;2022-12-18T06:18:21;-5.50;99.90
22319;DHT22;11327;52.334;9.506;2022-12-18T06:21:42;-5.50;99.90
22319;DHT22;11327;52.334;9.506;2022-12-18T06:25:04;-5.40;99.90
22319;DHT22;11327;52.334;9.506;2022-12-18T06:28:25;-5.40;99.90
22319;DHT22;11327;52.334;9.506;2022-12-18T06:31:46;-5.40;99.90
22319;DHT22;11327;52.334;9.506;2022-12-18T06:35:07;-5.40;99.90
22319;DHT22;11327;52.334;9.506;2022-12-18T06:38:28;-5.40;99.90
22319;DHT22;11327;52.334;9.506;2022-12-18T06:41:49;-5.50;99.90
22319;DHT22;11327;52.334;9.506;2022-12-18T06:45:10;-5.50;99.90
22319;DHT22;11327;52.334;9.506;2022-12-18T06:48:32;-5.50;99.90
22319;DHT22;11327;52.334;9.506;2022-12-18T06:51:53;-5.50;99.90
22319;DHT22;11327;52.334;9.506;2022-12-18T06:55:14;-5.50;99.90
22319;DHT22;11327;52.334;9.506;2022-12-18T06:58:35;-5.60;99.90
22319;DHT22;11327;52.334;9.506;2022-12-18T07:01:56;-5.60;99.90
22319;DHT22;11327;52.334;9.506;2022-12-18T07:05:17;-5.60;99.90
22319;DHT22;11327;52.334;9.506;2022-12-18T07:08:38;-5.60;99.90
22319;DHT22;11327;52.334;9.506;2022-12-18T07:11:59;-5.60;99.90
22319;DHT22;11327;52.334;9.506;2022-12-18T07:15:20;-5.60;99.90
22319;DHT22;11327;52.334;9.506;2022-12-18T07:18:41;-5.60;99.90
22319;DHT22;11327;52.334;9.506;2022-12-18T07:22:02;-5.60;99.90
22319;DHT22;11327;52.334;9.506;2022-12-18T07:25:23;-5.60;99.90
22319;DHT22;11327;52.334;9.506;2022-12-18T07:28:44;-5.60;99.90
22319;DHT22;11327;52.334;9.506;2022-12-18T07:32:05;-5.70;99.90
22319;DHT22;11327;52.334;9.506;2022-12-18T07:35:27;-5.70;99.90
22319;DHT22;11327;52.334;9.506;2022-12-18T07:38:49;-5.60;99.90
22319;DHT22;11327;52.334;9.506;2022-12-18T07:42:10;-5.70;99.90
22319;DHT22;11327;52.334;9.506;2022-12-18T07:45:49;-5.80;99.90
22319;DHT22;11327;52.334;9.506;2022-12-18T07:49:11;-5.80;99.90
22319;DHT22;11327;52.334;9.506;2022-12-18T07:52:31;-5.70;99.90
22319;DHT22;11327;52.334;9.506;2022-12-18T07:55:58;-5.70;99.90
22319;DHT22;11327;52.334;9.506;2022-12-18T07:59:19;-5.70;99.90
22319;DHT22;11327;52.334;9.506;2022-12-18T08:02:40;-5.70;99.90
22319;DHT22;11327;52.334;9.506;2022-12-18T08:06:02;-5.70;99.90
22319;DHT22;11327;52.334;9.506;2022-12-18T08:09:23;-5.70;99.90
22319;DHT22;11327;52.334;9.506;2022-12-18T08:12:44;-5.70;99.90
22319;DHT22;11327;52.334;9.506;2022-12-18T08:16:07;-5.60;99.90
22319;DHT22;11327;52.334;9.506;2022-12-18T08:19:29;-5.60;99.90
22319;DHT22;11327;52.334;9.506;2022-12-18T08:22:50;-5.60;99.90
22319;DHT22;11327;52.334;9.506;2022-12-18T08:26:11;-5.50;99.90
22319;DHT22;11327;52.334;9.506;2022-12-18T08:29:32;-5.40;99.90
22319;DHT22;11327;52.334;9.506;2022-12-18T08:32:54;-5.30;99.90
22319;DHT22;11327;52.334;9.506;2022-12-18T08:36:15;-5.30;99.90
22319;DHT22;11327;52.334;9.506;2022-12-18T08:39:36;-5.20;99.90
22319;DHT22;11327;52.334;9.506;2022-12-18T08:42:57;-5.20;99.90
22319;DHT22;11327;52.334;9.506;2022-12-18T08:46:38;-5.10;99.90
22319;DHT22;11327;52.334;9.506;2022-12-18T08:49:59;-5.00;99.90
22319;DHT22;11327;52.334;9.506;2022-12-18T08:53:20;-5.00;99.90
22319;DHT22;11327;52.334;9.506;2022-12-18T08:56:41;-4.90;99.90
22319;DHT22;11327;52.334;9.506;2022-12-18T09:00:04;-4.80;99.90
22319;DHT22;11327;52.334;9.506;2022-12-18T09:03:25;-4.70;99.90
22319;DHT22;11327;52.334;9.506;2022-12-18T09:06:46;-4.60;99.90
22319;DHT22;11327;52.334;9.506;2022-12-18T09:10:07;-4.40;99.90
22319;DHT22;11327;52.334;9.506;2022-12-18T09:13:28;-4.30;99.90
22319;DHT22;11327;52.334;9.506;2022-12-18T09:16:49;-4.20;99.90
22319;DHT22;11327;52.334;9.506;2022-12-18T09:20:10;-4.00;99.90
22319;DHT22;11327;52.334;9.506;2022-12-18T09:23:31;-3.80;99.90
22319;DHT22;11327;52.334;9.506;2022-12-18T09:26:55;-3.70;99.90
22319;DHT22;11327;52.334;9.506;2022-12-18T09:30:16;-3.60;99.90
22319;DHT22;11327;52.334;9.506;2022-12-18T09:33:37;-3.50;99.90
22319;DHT22;11327;52.334;9.506;2022-12-18T09:36:58;-3.50;99.90
22319;DHT22;11327;52.334;9.506;2022-12-18T09:40:22;-3.40;99.90
22319;DHT22;11327;52.334;9.506;2022-12-18T09:43:47;-3.40;99.90
22319;DHT22;11327;52.334;9.506;2022-12-18T09:47:40;-3.30;99.90
22319;DHT22;11327;52.334;9.506;2022-12-18T09:50:44;-3.30;99.90
22319;DHT22;11327;52.334;9.506;2022-12-18T09:54:10;-3.20;99.90
22319;DHT22;11327;52.334;9.506;2022-12-18T09:57:31;-3.00;99.90
22319;DHT22;11327;52.334;9.506;2022-12-18T10:00:54;-2.90;99.90
22319;DHT22;11327;52.334;9.506;2022-12-18T10:04:15;-2.80;99.90
22319;DHT22;11327;52.334;9.506;2022-12-18T10:08:17;-2.60;99.90
22319;DHT22;11327;52.334;9.506;2022-12-18T10:15:16;-2.20;99.90
22319;DHT22;11327;52.334;9.506;2022-12-18T10:22:08;-1.80;99.90
22319;DHT22;11327;52.334;9.506;2022-12-18T10:28:53;-1.50;99.90
22319;DHT22;11327;52.334;9.506;2022-12-18T10:32:17;-1.30;99.90
22319;DHT22;11327;52.334;9.506;2022-12-18T10:35:40;-1.20;99.90
22319;DHT22;11327;52.334;9.506;2022-12-18T10:39:22;-1.00;99.90
22319;DHT22;11327;52.334;9.506;2022-12-18T10:42:43;-0.80;99.90
22319;DHT22;11327;52.334;9.506;2022-12-18T10:49:34;-0.60;99.90
22319;DHT22;11327;52.334;9.506;2022-12-18T10:53:00;-0.40;99.90
22319;DHT22;11327;52.334;9.506;2022-12-18T10:56:22;-0.40;99.90
22319;DHT22;11327;52.334;9.506;2022-12-18T10:59:53;-0.40;99.90
22319;DHT22;11327;52.334;9.506;2022-12-18T11:03:30;-0.50;99.90
22319;DHT22;11327;52.334;9.506;2022-12-18T11:07:03;-0.50;99.90
22319;DHT22;11327;52.334;9.506;2022-12-18T11:10:33;-0.40;99.90
22319;DHT22;11327;52.334;9.506;2022-12-18T11:14:04;-0.20;99.90
22319;DHT22;11327;52.334;9.506;2022-12-18T11:21:05;-0.20;99.90
22319;DHT22;11327;52.334;9.506;2022-12-18T11:27:58;-0.40;99.90
22319;DHT22;11327;52.334;9.506;2022-12-18T11:34:42;-0.50;99.90
22319;DHT22;11327;52.334;9.506;2022-12-18T11:38:10;-0.30;99.90
22319;DHT22;11327;52.334;9.506;2022-12-18T11:41:48;0.00;99.90
22319;DHT22;11327;52.334;9.506;2022-12-18T11:45:27;0.20;99.90
22319;DHT22;11327;52.334;9.506;2022-12-18T11:48:56;0.30;99.90
22319;DHT22;11327;52.334;9.506;2022-12-18T11:52:23;0.30;99.90
22319;DHT22;11327;52.334;9.506;2022-12-18T12:03:39;0.10;99.90
22319;DHT22;11327;52.334;9.506;2022-12-18T12:25:37;-0.50;99.90
22319;DHT22;11327;52.334;9.506;2022-12-18T12:39:37;-0.70;99.90
22319;DHT22;11327;52.334;9.506;2022-12-18T12:43:03;-0.60;99.90
22319;DHT22;11327;52.334;9.506;2022-12-18T12:46:37;-0.70;99.90
22319;DHT22;11327;52.334;9.506;2022-12-18T12:50:01;-0.70;99.90
22319;DHT22;11327;52.334;9.506;2022-12-18T12:53:29;-0.60;99.90
22319;DHT22;11327;52.334;9.506;2022-12-18T13:00:50;-0.60;99.90
22319;DHT22;11327;52.334;9.506;2022-12-18T13:04:26;-0.60;99.90
22319;DHT22;11327;52.334;9.506;2022-12-18T13:08:09;-0.60;99.90
22319;DHT22;11327;52.334;9.506;2022-12-18T13:11:45;-0.60;99.90
22319;DHT22;11327;52.334;9.506;2022-12-18T13:15:45;-0.60;99.90
22319;DHT22;11327;52.334;9.506;2022-12-18T13:19:18;-0.60;99.90
22319;DHT22;11327;52.334;9.506;2022-12-18T13:29:44;-0.70;99.90
22319;DHT22;11327;52.334;9.506;2022-12-18T13:36:41;-0.80;99.90
22319;DHT22;11327;52.334;9.506;2022-12-18T13:40:19;-0.70;99.90
22319;DHT22;11327;52.334;9.506;2022-12-18T13:43:41;-0.70;99.90
22319;DHT22;11327;52.334;9.506;2022-12-18T13:46:54;-0.70;99.90
22319;DHT22;11327;52.334;9.506;2022-12-18T13:50:24;-0.70;99.90
22319;DHT22;11327;52.334;9.506;2022-12-18T13:53:51;-0.70;99.90
22319;DHT22;11327;52.334;9.506;2022-12-18T14:00:49;-0.80;99.90
22319;DHT22;11327;52.334;9.506;2022-12-18T14:04:16;-0.80;99.90
22319;DHT22;11327;52.334;9.506;2022-12-18T14:07:37;-0.80;99.90
22319;DHT22;11327;52.334;9.506;2022-12-18T14:10:58;-0.80;99.90
22319;DHT22;11327;52.334;9.506;2022-12-18T14:14:19;-0.80;99.90
22319;DHT22;11327;52.334;9.506;2022-12-18T14:17:40;-0.90;99.90
22319;DHT22;11327;52.334;9.506;2022-12-18T14:21:03;-1.40;99.90
22319;DHT22;11327;52.334;9.506;2022-12-18T14:24:25;-0.90;99.90
22319;DHT22;11327;52.334;9.506;2022-12-18T14:27:52;-0.90;99.90
22319;DHT22;11327;52.334;9.506;2022-12-18T14:31:27;-0.80;99.90
22319;DHT22;11327;52.334;9.506;2022-12-18T14:34:53;-0.90;99.90
22319;DHT22;11327;52.334;9.506;2022-12-18T14:38:32;-0.90;99.90
22319;DHT22;11327;52.334;9.506;2022-12-18T14:41:53;-0.80;99.90
22319;DHT22;11327;52.334;9.506;2022-12-18T14:45:37;-0.90;99.90
22319;DHT22;11327;52.334;9.506;2022-12-18T14:49:04;-0.90;99.90
22319;DHT22;11327;52.334;9.506;2022-12-18T14:52:28;-0.90;99.90
22319;DHT22;11327;52.334;9.506;2022-12-18T14:55:50;-0.80;99.90
22319;DHT22;11327;52.334;9.506;2022-12-18T14:59:22;-0.70;99.90
22319;DHT22;11327;52.334;9.506;2022-12-18T15:02:45;-0.70;99.90
22319;DHT22;11327;52.334;9.506;2022-12-18T15:06:30;-0.80;99.90
22319;DHT22;11327;52.334;9.506;2022-12-18T15:13:28;-0.70;99.90
22319;DHT22;11327;52.334;9.506;2022-12-18T15:16:53;-0.80;99.90
22319;DHT22;11327;52.334;9.506;2022-12-18T15:20:15;-0.80;99.90
22319;DHT22;11327;52.334;9.506;2022-12-18T15:23:45;-0.80;99.90
22319;DHT22;11327;52.334;9.506;2022-12-18T15:27:00;-0.80;99.90
22319;DHT22;11327;52.334;9.506;2022-12-18T15:30:23;-0.80;99.90
22319;DHT22;11327;52.334;9.506;2022-12-18T15:37:15;-0.80;99.90
22319;DHT22;11327;52.334;9.506;2022-12-18T15:40:36;-0.90;99.90
22319;DHT22;11327;52.334;9.506;2022-12-18T15:43:57;-0.80;99.90
22319;DHT22;11327;52.334;9.506;2022-12-18T15:47:18;-0.80;99.90
22319;DHT22;11327;52.334;9.506;2022-12-18T15:50:39;-0.80;99.90
22319;DHT22;11327;52.334;9.506;2022-12-18T15:54:02;-0.80;99.90
22319;DHT22;11327;52.334;9.506;2022-12-18T15:57:24;-0.80;99.90
22319;DHT22;11327;52.334;9.506;2022-12-18T16:00:45;-0.90;99.90
22319;DHT22;11327;52.334;9.506;2022-12-18T16:04:06;-0.80;99.90
22319;DHT22;11327;52.334;9.506;2022-12-18T16:07:27;-0.80;99.90
22319;DHT22;11327;52.334;9.506;2022-12-18T16:10:48;-0.80;99.90
22319;DHT22;11327;52.334;9.506;2022-12-18T16:14:24;-0.80;99.90
22319;DHT22;11327;52.334;9.506;2022-12-18T16:17:48;-0.70;99.90
22319;DHT22;11327;52.334;9.506;2022-12-18T16:21:09;-0.70;99.90
22319;DHT22;11327;52.334;9.506;2022-12-18T16:24:32;-0.80;99.90
22319;DHT22;11327;52.334;9.506;2022-12-18T16:27:54;-0.80;99.90
22319;DHT22;11327;52.334;9.506;2022-12-18T16:31:15;-0.90;99.90
22319;DHT22;11327;52.334;9.506;2022-12-18T16:34:37;-0.80;99.90
22319;DHT22;11327;52.334;9.506;2022-12-18T16:37:57;-0.70;99.90
22319;DHT22;11327;52.334;9.506;2022-12-18T16:41:19;-0.70;99.90
22319;DHT22;11327;52.334;9.506;2022-12-18T16:44:51;-0.70;99.90
22319;DHT22;11327;52.334;9.506;2022-12-18T16:48:13;-0.60;99.90
22319;DHT22;11327;52.334;9.506;2022-12-18T16:51:34;-0.60;99.90
22319;DHT22;11327;52.334;9.506;2022-12-18T16:54:55;-0.50;99.90
22319;DHT22;11327;52.334;9.506;2022-12-18T16:58:16;-0.40;99.90
22319;DHT22;11327;52.334;9.506;2022-12-18T17:01:37;-0.40;99.90
22319;DHT22;11327;52.334;9.506;2022-12-18T17:04:58;-0.50;99.90
22319;DHT22;11327;52.334;9.506;2022-12-18T17:08:19;-0.50;99.90
22319;DHT22;11327;52.334;9.506;2022-12-18T17:11:41;-0.40;99.90
22319;DHT22;11327;52.334;9.506;2022-12-18T17:15:03;-0.40;99.90
22319;DHT22;11327;52.334;9.506;2022-12-18T17:18:24;-0.40;99.90
22319;DHT22;11327;52.334;9.506;2022-12-18T17:21:48;-0.40;99.90
22319;DHT22;11327;52.334;9.506;2022-12-18T17:25:10;-0.40;99.90
22319;DHT22;11327;52.334;9.506;2022-12-18T17:28:31;-0.40;99.90
22319;DHT22;11327;52.334;9.506;2022-12-18T17:31:51;-0.40;99.90
22319;DHT22;11327;52.334;9.506;2022-12-18T17:35:13;-0.40;99.90
22319;DHT22;11327;52.334;9.506;2022-12-18T17:38:34;-0.30;99.90
22319;DHT22;11327;52.334;9.506;2022-12-18T17:41:55;-0.40;99.90
22319;DHT22;11327;52.334;9.506;2022-12-18T17:45:17;-0.40;99.90
22319;DHT22;11327;52.334;9.506;2022-12-18T17:48:38;-0.40;99.90
22319;DHT22;11327;52.334;9.506;2022-12-18T17:51:59;-0.40;99.90
22319;DHT22;11327;52.334;9.506;2022-12-18T17:55:20;-0.40;99.90
22319;DHT22;11327;52.334;9.506;2022-12-18T17:58:41;-0.40;99.90
22319;DHT22;11327;52.334;9.506;2022-12-18T18:02:02;-0.40;99.90
22319;DHT22;11327;52.334;9.506;2022-12-18T18:05:23;-0.40;99.90
22319;DHT22;11327;52.334;9.506;2022-12-18T18:08:44;-0.40;99.90
22319;DHT22;11327;52.334;9.506;2022-12-18T18:12:05;-0.40;99.90
22319;DHT22;11327;52.334;9.506;2022-12-18T18:15:53;-0.30;99.90
22319;DHT22;11327;52.334;9.506;2022-12-18T18:19:12;-0.30;99.90
22319;DHT22;11327;52.334;9.506;2022-12-18T18:22:34;-0.20;99.90
22319;DHT22;11327;52.334;9.506;2022-12-18T18:25:55;-0.20;99.90
22319;DHT22;11327;52.334;9.506;2022-12-18T18:29:19;-0.20;99.90
22319;DHT22;11327;52.334;9.506;2022-12-18T18:32:40;-0.30;99.90
22319;DHT22;11327;52.334;9.506;2022-12-18T18:36:02;-0.40;99.90
22319;DHT22;11327;52.334;9.506;2022-12-18T18:39:23;-0.40;99.90
22319;DHT22;11327;52.334;9.506;2022-12-18T18:42:44;-0.40;99.90
22319;DHT22;11327;52.334;9.506;2022-12-18T18:46:05;-0.40;99.90
22319;DHT22;11327;52.334;9.506;2022-12-18T18:49:26;-0.40;99.90
22319;DHT22;11327;52.334;9.506;2022-12-18T18:52:47;-0.40;99.90
22319;DHT22;11327;52.334;9.506;2022-12-18T18:56:10;-0.40;99.90
22319;DHT22;11327;52.334;9.506;2022-12-18T18:59:32;-0.30;99.90
22319;DHT22;11327;52.334;9.506;2022-12-18T19:02:53;-0.30;99.90
22319;DHT22;11327;52.334;9.506;2022-12-18T19:06:24;-0.30;99.90
22319;DHT22;11327;52.334;9.506;2022-12-18T19:09:43;-0.20;99.90
22319;DHT22;11327;52.334;9.506;2022-12-18T19:13:04;-0.10;99.90
22319;DHT22;11327;52.334;9.506;2022-12-18T19:16:41;0.00;99.90
22319;DHT22;11327;52.334;9.506;2022-12-18T19:20:04;0.00;99.90
22319;DHT22;11327;52.334;9.506;2022-12-18T19:23:25;0.00;99.90
22319;DHT22;11327;52.334;9.506;2022-12-18T19:26:46;0.10;99.90
22319;DHT22;11327;52.334;9.506;2022-12-18T19:30:08;0.10;99.90
22319;DHT22;11327;52.334;9.506;2022-12-18T19:33:31;0.10;99.90
22319;DHT22;11327;52.334;9.506;2022-12-18T19:36:52;0.10;99.90
22319;DHT22;11327;52.334;9.506;2022-12-18T19:40:13;0.00;99.90
22319;DHT22;11327;52.334;9.506;2022-12-18T19:43:37;0.00;99.90
22319;DHT22;11327;52.334;9.506;2022-12-18T19:46:59;0.00;99.90
22319;DHT22;11327;52.334;9.506;2022-12-18T19:50:20;0.10;99.90
22319;DHT22;11327;52.334;9.506;2022-12-18T19:53:41;0.10;99.90
22319;DHT22;11327;52.334;9.506;2022-12-18T19:57:02;0.10;99.90
22319;DHT22;11327;52.334;9.506;2022-12-18T20:00:24;0.10;99.90
22319;DHT22;11327;52.334;9.506;2022-12-18T20:03:46;0.10;99.90
22319;DHT22;11327;52.334;9.506;2022-12-18T20:07:07;0.20;99.90
22319;DHT22;11327;52.334;9.506;2022-12-18T20:10:28;0.20;99.90
22319;DHT22;11327;52.334;9.506;2022-12-18T20:13:49;0.30;99.90
22319;DHT22;11327;52.334;9.506;2022-12-18T20:17:10;0.30;99.90
22319;DHT22;11327;52.334;9.506;2022-12-18T20:20:31;0.20;99.90
22319;DHT22;11327;52.334;9.506;2022-12-18T20:23:52;0.30;99.90
22319;DHT22;11327;52.334;9.506;2022-12-18T20:27:15;0.40;99.90
22319;DHT22;11327;52.334;9.506;2022-12-18T20:30:36;0.40;99.90
22319;DHT22;11327;52.334;9.506;2022-12-18T20:33:57;0.20;99.90
22319;DHT22;11327;52.334;9.506;2022-12-18T20:37:18;0.20;99.90
22319;DHT22;11327;52.334;9.506;2022-12-18T20:40:40;0.10;99.90
22319;DHT22;11327;52.334;9.506;2022-12-18T20:44:01;0.10;99.90
22319;DHT22;11327;52.334;9.506;2022-12-18T20:47:22;0.20;99.90
22319;DHT22;11327;52.334;9.506;2022-12-18T20:50:43;0.40;99.90
22319;DHT22;11327;52.334;9.506;2022-12-18T20:54:04;0.80;99.90
22319;DHT22;11327;52.334;9.506;2022-12-18T20:57:27;1.00;99.90
22319;DHT22;11327;52.334;9.506;2022-12-18T21:00:48;1.10;99.90
22319;DHT22;11327;52.334;9.506;2022-12-18T21:04:08;1.20;99.90
22319;DHT22;11327;52.334;9.506;2022-12-18T21:07:29;1.30;99.90
22319;DHT22;11327;52.334;9.506;2022-12-18T21:10:50;1.30;99.90
22319;DHT22;11327;52.334;9.506;2022-12-18T21:17:36;1.30;99.90
22319;DHT22;11327;52.334;9.506;2022-12-18T21:20:56;1.20;99.90
22319;DHT22;11327;52.334;9.506;2022-12-18T21:24:18;1.20;99.90
22319;DHT22;11327;52.334;9.506;2022-12-18T21:27:39;1.10;99.90
22319;DHT22;11327;52.334;9.506;2022-12-18T21:31:00;1.20;99.90
22319;DHT22;11327;52.334;9.506;2022-12-18T21:34:24;1.10;99.90
22319;DHT22;11327;52.334;9.506;2022-12-18T21:37:46;1.10;99.90
22319;DHT22;11327;52.334;9.506;2022-12-18T21:41:08;1.20;99.90
22319;DHT22;11327;52.334;9.506;2022-12-18T21:44:29;1.20;99.90
22319;DHT22;11327;52.334;9.506;2022-12-18T21:47:50;1.30;99.90
22319;DHT22;11327;52.334;9.506;2022-12-18T21:51:11;1.30;99.90
22319;DHT22;11327;52.334;9.506;2022-12-18T21:54:32;1.30;99.90
22319;DHT22;11327;52.334;9.506;2022-12-18T21:57:53;1.30;99.90
22319;DHT22;11327;52.334;9.506;2022-12-18T22:01:14;1.30;99.90
22319;DHT22;11327;52.334;9.506;2022-12-18T22:04:35;1.20;99.90
22319;DHT22;11327;52.334;9.506;2022-12-18T22:07:56;1.40;99.90
22319;DHT22;11327;52.334;9.506;2022-12-18T22:11:17;1.50;99.90
22319;DHT22;11327;52.334;9.506;2022-12-18T22:14:38;1.60;99.90
22319;DHT22;11327;52.334;9.506;2022-12-18T22:17:59;1.50;99.90
22319;DHT22;11327;52.334;9.506;2022-12-18T22:21:29;1.50;99.90
22319;DHT22;11327;52.334;9.506;2022-12-18T22:24:50;1.50;99.90
22319;DHT22;11327;52.334;9.506;2022-12-18T22:28:11;1.40;99.90
22319;DHT22;11327;52.334;9.506;2022-12-18T22:31:51;1.50;99.90
22319;DHT22;11327;52.334;9.506;2022-12-18T22:35:12;1.60;99.90
22319;DHT22;11327;52.334;9.506;2022-12-18T22:38:33;1.60;99.90
22319;DHT22;11327;52.334;9.506;2022-12-18T22:41:54;1.60;99.90
22319;DHT22;11327;52.334;9.506;2022-12-18T22:45:15;1.70;99.90
22319;DHT22;11327;52.334;9.506;2022-12-18T22:48:36;1.70;99.90
22319;DHT22;11327;52.334;9.506;2022-12-18T22:51:57;1.70;99.90
22319;DHT22;11327;52.334;9.506;2022-12-18T22:55:18;1.70;99.90
22319;DHT22;11327;52.334;9.506;2022-12-18T22:58:40;1.70;99.90
22319;DHT22;11327;52.334;9.506;2022-12-18T23:02:01;1.60;99.90
22319;DHT22;11327;52.334;9.506;2022-12-18T23:05:22;1.60;99.90
22319;DHT22;11327;52.334;9.506;2022-12-18T23:08:43;1.60;99.90
22319;DHT22;11327;52.334;9.506;2022-12-18T23:12:05;1.70;99.90
22319;DHT22;11327;52.334;9.506;2022-12-18T23:15:26;1.70;99.90
22319;DHT22;11327;52.334;9.506;2022-12-18T23:18:51;1.70;99.90
22319;DHT22;11327;52.334;9.506;2022-12-18T23:22:10;1.70;99.90
22319;DHT22;11327;52.334;9.506;2022-12-18T23:25:31;1.60;99.90